sensor_id;sensor_type;location;lat;lon;timestamp;pressure;altitude;pressure_sealevel;temperature;humidity
8451;BME280;4262;50.980;13.892;2023-12-07T00:01:32;88768.94;;;-142.97;78.36
8451;BME280;4262;50.980;13.892;2023-12-07T00:03:59;88281.97;;;-142.97;78.68
8451;BME280;4262;50.980;13.892;2023-12-07T00:06:26;88051.31;;;-142.97;79.01
8451;BME280;4262;50.980;13.892;2023-12-07T00:08:53;87282.59;;;-142.97;79.19
8451;BME280;4262;50.980;13.892;2023-12-07T00:11:22;86411.56;;;-142.97;79.53
8451;BME280;4262;50.980;13.892;2023-12-07T00:13:49;87331.84;;;-142.97;79.09
8451;BME280;4262;50.980;13.892;2023-12-07T00:16:16;88175.50;;;-142.97;78.76
8451;BME280;4262;50.980;13.892;2023-12-07T00:18:43;88889.22;;;-142.97;78.22
8451;BME280;4262;50.980;13.892;2023-12-07T00:21:09;89096.25;;;-142.97;77.77
8451;BME280;4262;50.980;13.892;2023-12-07T00:23:35;89315.13;;;-142.97;77.36
8451;BME280;4262;50.980;13.892;2023-12-07T00:26:03;89352.59;;;-142.97;77.59
8451;BME280;4262;50.980;13.892;2023-12-07T00:28:31;89273.72;;;-142.97;77.58
8451;BME280;4262;50.980;13.892;2023-12-07T00:30:58;89273.72;;;-142.97;77.72
8451;BME280;4262;50.980;13.892;2023-12-07T00:33:25;89372.31;;;-142.97;77.10
8451;BME280;4262;50.980;13.892;2023-12-07T00:35:51;89336.84;;;-142.97;77.57
8451;BME280;4262;50.980;13.892;2023-12-07T00:38:18;89319.09;;;-142.97;77.66
8451;BME280;4262;50.980;13.892;2023-12-07T00:40:46;89224.44;;;-142.97;77.62
8451;BME280;4262;50.980;13.892;2023-12-07T00:43:13;89102.16;;;-142.97;78.13
8451;BME280;4262;50.980;13.892;2023-12-07T00:45:41;89076.53;;;-142.97;77.74
8451;BME280;4262;50.980;13.892;2023-12-07T00:48:08;89295.41;;;-142.97;77.31
8451;BME280;4262;50.980;13.892;2023-12-07T00:50:35;89348.66;;;-142.97;77.36
8451;BME280;4262;50.980;13.892;2023-12-07T00:53:01;89100.19;;;-142.97;78.04
8451;BME280;4262;50.980;13.892;2023-12-07T00:55:28;88964.13;;;-142.97;78.30
8451;BME280;4262;50.980;13.892;2023-12-07T00:57:55;88839.91;;;-142.97;78.32
8451;BME280;4262;50.980;13.892;2023-12-07T01:00:22;88656.56;;;-142.97;78.41
8451;BME280;4262;50.980;13.892;2023-12-07T01:02:50;88774.84;;;-142.97;78.52
8451;BME280;4262;50.980;13.892;2023-12-07T01:05:18;88540.22;;;-142.97;78.64
8451;BME280;4262;50.980;13.892;2023-12-07T01:07:44;88238.59;;;-142.97;78.76
8451;BME280;4262;50.980;13.892;2023-12-07T01:10:11;88735.41;;;-142.97;78.34
8451;BME280;4262;50.980;13.892;2023-12-07T01:12:38;89050.91;;;-142.97;77.91
8451;BME280;4262;50.980;13.892;2023-12-07T01:15:05;89046.97;;;-142.97;78.04
8451;BME280;4262;50.980;13.892;2023-12-07T01:17:32;88997.66;;;-142.97;78.08
8451;BME280;4262;50.980;13.892;2023-12-07T01:20:00;89062.72;;;-142.97;78.06
8451;BME280;4262;50.980;13.892;2023-12-07T01:22:29;89457.13;;;-142.97;77.11
8451;BME280;4262;50.980;13.892;2023-12-07T01:24:56;89216.53;;;-142.97;77.62
8451;BME280;4262;50.980;13.892;2023-12-07T01:27:23;88940.47;;;-142.97;78.12
8451;BME280;4262;50.980;13.892;2023-12-07T01:29:49;88591.50;;;-142.97;78.50
8451;BME280;4262;50.980;13.892;2023-12-07T01:32:16;88725.56;;;-142.97;78.52
8451;BME280;4262;50.980;13.892;2023-12-07T01:34:43;88587.53;;;-142.97;78.52
8451;BME280;4262;50.980;13.892;2023-12-07T01:37:12;88530.38;;;-142.97;78.28
8451;BME280;4262;50.980;13.892;2023-12-07T01:39:38;88891.19;;;-142.97;78.01
8451;BME280;4262;50.980;13.892;2023-12-07T01:42:05;89157.38;;;-142.97;77.73
8451;BME280;4262;50.980;13.892;2023-12-07T01:44:34;89153.44;;;-142.97;77.41
8451;BME280;4262;50.980;13.892;2023-12-07T01:47:01;89263.88;;;-142.97;77.42
8451;BME280;4262;50.980;13.892;2023-12-07T01:49:29;89376.28;;;-142.97;77.09
8451;BME280;4262;50.980;13.892;2023-12-07T01:51:56;89346.69;;;-142.97;76.94
8451;BME280;4262;50.980;13.892;2023-12-07T01:54:24;89336.84;;;-142.97;77.16
8451;BME280;4262;50.980;13.892;2023-12-07T01:56:51;89297.41;;;-142.97;77.15
8451;BME280;4262;50.980;13.892;2023-12-07T01:59:18;89173.16;;;-142.97;77.38
8451;BME280;4262;50.980;13.892;2023-12-07T02:01:45;89425.56;;;-142.97;76.77
8451;BME280;4262;50.980;13.892;2023-12-07T02:04:13;89443.31;;;-142.97;76.81
8451;BME280;4262;50.980;13.892;2023-12-07T02:06:39;89384.16;;;-142.97;77.31
8451;BME280;4262;50.980;13.892;2023-12-07T02:09:07;89301.34;;;-142.97;77.16
8451;BME280;4262;50.980;13.892;2023-12-07T02:11:35;89313.16;;;-142.97;77.57
8451;BME280;4262;50.980;13.892;2023-12-07T02:14:02;89305.28;;;-142.97;77.53
8451;BME280;4262;50.980;13.892;2023-12-07T02:16:31;89240.22;;;-142.97;77.54
8451;BME280;4262;50.980;13.892;2023-12-07T02:19:09;89161.31;;;-142.97;78.08
8451;BME280;4262;50.980;13.892;2023-12-07T02:21:47;88877.38;;;-142.97;78.23
8451;BME280;4262;50.980;13.892;2023-12-07T02:24:21;88908.94;;;-142.97;77.85
8451;BME280;4262;50.980;13.892;2023-12-07T02:26:49;89037.09;;;-142.97;77.99
8451;BME280;4262;50.980;13.892;2023-12-07T02:29:16;89153.44;;;-142.97;77.74
8451;BME280;4262;50.980;13.892;2023-12-07T02:31:43;88879.34;;;-142.97;78.23
8451;BME280;4262;50.980;13.892;2023-12-07T02:34:10;88952.31;;;-142.97;78.18
8451;BME280;4262;50.980;13.892;2023-12-07T02:36:38;88226.75;;;-142.97;78.76
8451;BME280;4262;50.980;13.892;2023-12-07T02:39:06;87030.31;;;-142.97;79.37
8451;BME280;4262;50.980;13.892;2023-12-07T02:41:35;86255.91;;;-142.97;79.67
8451;BME280;4262;50.980;13.892;2023-12-07T02:44:04;85765.34;;;-142.97;79.58
8451;BME280;4262;50.980;13.892;2023-12-07T02:46:31;84457.53;;;-142.97;79.88
8451;BME280;4262;50.980;13.892;2023-12-07T02:48:58;84640.66;;;-142.97;79.87
8451;BME280;4262;50.980;13.892;2023-12-07T02:51:25;86752.47;;;-142.97;79.29
8451;BME280;4262;50.980;13.892;2023-12-07T02:53:52;86766.25;;;-142.97;79.45
8451;BME280;4262;50.980;13.892;2023-12-07T02:56:19;87745.78;;;-142.97;78.94
8451;BME280;4262;50.980;13.892;2023-12-07T02:58:46;88149.88;;;-142.97;78.63
8451;BME280;4262;50.980;13.892;2023-12-07T03:01:14;88885.28;;;-142.97;78.36
8451;BME280;4262;50.980;13.892;2023-12-07T03:03:41;88423.91;;;-142.97;78.40
8451;BME280;4262;50.980;13.892;2023-12-07T03:06:08;87921.19;;;-142.97;78.81
8451;BME280;4262;50.980;13.892;2023-12-07T03:08:34;88360.81;;;-142.97;78.64
8451;BME280;4262;50.980;13.892;2023-12-07T03:11:01;88832.03;;;-142.97;78.13
8451;BME280;4262;50.980;13.892;2023-12-07T03:13:27;88920.75;;;-142.97;78.24
8451;BME280;4262;50.980;13.892;2023-12-07T03:15:54;88524.44;;;-142.97;78.56
8451;BME280;4262;50.980;13.892;2023-12-07T03:18:22;86817.50;;;-142.97;79.55
8451;BME280;4262;50.980;13.892;2023-12-07T03:20:49;87994.13;;;-142.97;78.68
8451;BME280;4262;50.980;13.892;2023-12-07T03:23:16;87826.59;;;-142.97;78.91
8451;BME280;4262;50.980;13.892;2023-12-07T03:25:43;86368.22;;;-142.97;79.45
8451;BME280;4262;50.980;13.892;2023-12-07T03:28:10;86186.97;;;-142.97;79.38
8451;BME280;4262;50.980;13.892;2023-12-07T03:30:37;86634.22;;;-142.97;79.34
8451;BME280;4262;50.980;13.892;2023-12-07T03:33:04;87597.94;;;-142.97;78.92
8451;BME280;4262;50.980;13.892;2023-12-07T03:35:32;88402.22;;;-142.97;78.33
8451;BME280;4262;50.980;13.892;2023-12-07T03:37:59;88650.63;;;-142.97;78.34
8451;BME280;4262;50.980;13.892;2023-12-07T03:40:26;89153.44;;;-142.97;77.81
8451;BME280;4262;50.980;13.892;2023-12-07T03:42:53;88810.34;;;-142.97;78.11
8451;BME280;4262;50.980;13.892;2023-12-07T03:45:20;89263.88;;;-142.97;77.61
8451;BME280;4262;50.980;13.892;2023-12-07T03:47:47;89110.06;;;-142.97;78.08
8451;BME280;4262;50.980;13.892;2023-12-07T03:50:13;88810.34;;;-142.97;78.07
8451;BME280;4262;50.980;13.892;2023-12-07T03:52:42;88843.88;;;-142.97;78.11
8451;BME280;4262;50.980;13.892;2023-12-07T03:55:08;88711.75;;;-142.97;78.27
8451;BME280;4262;50.980;13.892;2023-12-07T03:57:35;89048.94;;;-142.97;77.80
8451;BME280;4262;50.980;13.892;2023-12-07T04:00:03;89173.16;;;-142.97;77.45
8451;BME280;4262;50.980;13.892;2023-12-07T04:02:32;89317.13;;;-142.97;77.68
8451;BME280;4262;50.980;13.892;2023-12-07T04:04:59;89293.44;;;-142.97;77.52
8451;BME280;4262;50.980;13.892;2023-12-07T04:07:27;89354.59;;;-142.97;77.50
8451;BME280;4262;50.980;13.892;2023-12-07T04:09:55;88924.69;;;-142.97;78.26
8451;BME280;4262;50.980;13.892;2023-12-07T04:12:22;89003.56;;;-142.97;78.20
8451;BME280;4262;50.980;13.892;2023-12-07T04:14:49;88433.75;;;-142.97;78.47
8451;BME280;4262;50.980;13.892;2023-12-07T04:17:17;87223.47;;;-142.97;79.35
8451;BME280;4262;50.980;13.892;2023-12-07T04:19:44;85349.72;;;-142.97;79.72
8451;BME280;4262;50.980;13.892;2023-12-07T04:22:10;85672.78;;;-142.97;79.71
8451;BME280;4262;50.980;13.892;2023-12-07T04:24:37;85219.72;;;-142.97;79.88
8451;BME280;4262;50.980;13.892;2023-12-07T04:27:05;86058.91;;;-142.97;79.60
8451;BME280;4262;50.980;13.892;2023-12-07T04:29:32;87436.31;;;-142.97;78.73
8451;BME280;4262;50.980;13.892;2023-12-07T04:31:59;88613.19;;;-142.97;78.20
8451;BME280;4262;50.980;13.892;2023-12-07T04:34:26;88356.88;;;-142.97;78.52
8451;BME280;4262;50.980;13.892;2023-12-07T04:36:52;88701.91;;;-142.97;78.23
8451;BME280;4262;50.980;13.892;2023-12-07T04:39:19;88544.16;;;-142.97;78.33
8451;BME280;4262;50.980;13.892;2023-12-07T04:41:46;89123.88;;;-142.97;77.61
8451;BME280;4262;50.980;13.892;2023-12-07T04:44:14;89275.69;;;-142.97;77.39
8451;BME280;4262;50.980;13.892;2023-12-07T04:46:42;89376.28;;;-142.97;77.19
8451;BME280;4262;50.980;13.892;2023-12-07T04:49:09;89330.91;;;-142.97;77.61
8451;BME280;4262;50.980;13.892;2023-12-07T04:51:36;88910.91;;;-142.97;78.03
8451;BME280;4262;50.980;13.892;2023-12-07T04:54:03;88981.88;;;-142.97;78.12
8451;BME280;4262;50.980;13.892;2023-12-07T04:56:29;88504.75;;;-142.97;78.65
8451;BME280;4262;50.980;13.892;2023-12-07T04:58:56;87970.50;;;-142.97;78.74
8451;BME280;4262;50.980;13.892;2023-12-07T05:01:25;88266.19;;;-142.97;78.68
8451;BME280;4262;50.980;13.892;2023-12-07T05:03:51;88102.56;;;-142.97;78.68
8451;BME280;4262;50.980;13.892;2023-12-07T05:06:18;87239.22;;;-142.97;79.14
8451;BME280;4262;50.980;13.892;2023-12-07T05:08:45;88786.69;;;-142.97;78.10
8451;BME280;4262;50.980;13.892;2023-12-07T05:11:11;88601.34;;;-142.97;78.36
8451;BME280;4262;50.980;13.892;2023-12-07T05:13:38;87846.31;;;-142.97;78.86
8451;BME280;4262;50.980;13.892;2023-12-07T05:16:06;87797.03;;;-142.97;78.92
8451;BME280;4262;50.980;13.892;2023-12-07T05:18:35;87741.81;;;-142.97;79.09
8451;BME280;4262;50.980;13.892;2023-12-07T05:21:01;87856.16;;;-142.97;78.93
8451;BME280;4262;50.980;13.892;2023-12-07T05:23:28;88216.91;;;-142.97;78.76
8451;BME280;4262;50.980;13.892;2023-12-07T05:25:54;88841.88;;;-142.97;78.25
8451;BME280;4262;50.980;13.892;2023-12-07T05:28:21;88873.44;;;-142.97;78.14
8451;BME280;4262;50.980;13.892;2023-12-07T05:30:48;88516.56;;;-142.97;78.56
8451;BME280;4262;50.980;13.892;2023-12-07T05:33:15;87869.94;;;-142.97;79.00
8451;BME280;4262;50.980;13.892;2023-12-07T05:35:43;87686.63;;;-142.97;78.89
8451;BME280;4262;50.980;13.892;2023-12-07T05:38:10;87430.41;;;-142.97;79.22
8451;BME280;4262;50.980;13.892;2023-12-07T05:40:37;87286.53;;;-142.97;78.99
8451;BME280;4262;50.980;13.892;2023-12-07T05:43:03;87071.72;;;-142.97;79.26
8451;BME280;4262;50.980;13.892;2023-12-07T05:45:30;87619.63;;;-142.97;79.02
8451;BME280;4262;50.980;13.892;2023-12-07T05:47:57;86880.56;;;-142.97;79.35
8451;BME280;4262;50.980;13.892;2023-12-07T05:50:24;87828.56;;;-142.97;78.82
8451;BME280;4262;50.980;13.892;2023-12-07T05:52:52;88597.41;;;-142.97;78.15
8451;BME280;4262;50.980;13.892;2023-12-07T05:55:19;88595.44;;;-142.97;78.15
8451;BME280;4262;50.980;13.892;2023-12-07T05:57:46;88962.16;;;-142.97;77.94
8451;BME280;4262;50.980;13.892;2023-12-07T06:00:13;89048.94;;;-142.97;77.78
8451;BME280;4262;50.980;13.892;2023-12-07T06:02:41;88723.59;;;-142.97;78.30
8451;BME280;4262;50.980;13.892;2023-12-07T06:05:09;88903.00;;;-142.97;77.68
8451;BME280;4262;50.980;13.892;2023-12-07T06:07:37;89076.53;;;-142.97;77.46
8451;BME280;4262;50.980;13.892;2023-12-07T06:10:06;89257.94;;;-142.97;77.07
8451;BME280;4262;50.980;13.892;2023-12-07T06:12:32;89261.91;;;-142.97;77.23
8451;BME280;4262;50.980;13.892;2023-12-07T06:14:59;89415.72;;;-142.97;76.77
8451;BME280;4262;50.980;13.892;2023-12-07T06:17:26;89145.56;;;-142.97;77.62
8451;BME280;4262;50.980;13.892;2023-12-07T06:19:53;89208.66;;;-142.97;77.35
8451;BME280;4262;50.980;13.892;2023-12-07T06:22:20;89139.63;;;-142.97;77.47
8451;BME280;4262;50.980;13.892;2023-12-07T06:24:47;89228.38;;;-142.97;77.36
8451;BME280;4262;50.980;13.892;2023-12-07T06:27:15;89273.72;;;-142.97;77.01
8451;BME280;4262;50.980;13.892;2023-12-07T06:29:42;89206.69;;;-142.97;77.31
8451;BME280;4262;50.980;13.892;2023-12-07T06:32:08;89129.78;;;-142.97;77.71
8451;BME280;4262;50.980;13.892;2023-12-07T06:34:39;89167.25;;;-142.97;77.42
8451;BME280;4262;50.980;13.892;2023-12-07T06:37:06;89200.75;;;-142.97;77.65
8451;BME280;4262;50.980;13.892;2023-12-07T06:39:33;88837.94;;;-142.97;77.78
8451;BME280;4262;50.980;13.892;2023-12-07T06:42:00;88808.38;;;-142.97;78.01
8451;BME280;4262;50.980;13.892;2023-12-07T06:44:28;89112.03;;;-142.97;77.53
8451;BME280;4262;50.980;13.892;2023-12-07T06:46:54;89186.97;;;-142.97;77.58
8451;BME280;4262;50.980;13.892;2023-12-07T06:49:21;88942.44;;;-142.97;77.91
8451;BME280;4262;50.980;13.892;2023-12-07T06:51:48;88678.25;;;-142.97;78.24
8451;BME280;4262;50.980;13.892;2023-12-07T06:54:15;88776.81;;;-142.97;78.15
8451;BME280;4262;50.980;13.892;2023-12-07T06:56:42;88453.47;;;-142.97;78.35
8451;BME280;4262;50.980;13.892;2023-12-07T06:59:09;88216.91;;;-142.97;78.66
8451;BME280;4262;50.980;13.892;2023-12-07T07:01:37;88496.84;;;-142.97;78.17
8451;BME280;4262;50.980;13.892;2023-12-07T07:04:04;88899.06;;;-142.97;77.86
8451;BME280;4262;50.980;13.892;2023-12-07T07:06:31;88867.53;;;-142.97;77.92
8451;BME280;4262;50.980;13.892;2023-12-07T07:08:57;89125.84;;;-142.97;77.36
8451;BME280;4262;50.980;13.892;2023-12-07T07:11:25;89037.09;;;-142.97;77.34
8451;BME280;4262;50.980;13.892;2023-12-07T07:13:52;89242.19;;;-142.97;77.37
8451;BME280;4262;50.980;13.892;2023-12-07T07:16:18;89297.41;;;-142.97;76.95
8451;BME280;4262;50.980;13.892;2023-12-07T07:18:47;89338.81;;;-142.97;76.66
8451;BME280;4262;50.980;13.892;2023-12-07T07:21:14;89220.47;;;-142.97;76.79
8451;BME280;4262;50.980;13.892;2023-12-07T07:23:41;89342.75;;;-142.97;76.63
8451;BME280;4262;50.980;13.892;2023-12-07T07:26:07;89380.22;;;-142.97;76.51
8451;BME280;4262;50.980;13.892;2023-12-07T07:28:34;89254.00;;;-142.97;76.82
8451;BME280;4262;50.980;13.892;2023-12-07T07:31:01;89078.50;;;-142.97;77.50
8451;BME280;4262;50.980;13.892;2023-12-07T07:33:29;89167.25;;;-142.97;77.41
8451;BME280;4262;50.980;13.892;2023-12-07T07:35:57;89344.72;;;-142.97;76.67
8451;BME280;4262;50.980;13.892;2023-12-07T07:38:24;89281.63;;;-142.97;77.32
8451;BME280;4262;50.980;13.892;2023-12-07T07:40:51;89222.47;;;-142.97;77.07
8451;BME280;4262;50.980;13.892;2023-12-07T07:43:18;88826.13;;;-142.97;77.78
8451;BME280;4262;50.980;13.892;2023-12-07T07:45:44;88652.59;;;-142.97;78.08
8451;BME280;4262;50.980;13.892;2023-12-07T07:48:12;88364.75;;;-142.97;78.44
8451;BME280;4262;50.980;13.892;2023-12-07T07:50:38;88297.72;;;-142.97;78.23
8451;BME280;4262;50.980;13.892;2023-12-07T07:53:07;88893.16;;;-142.97;77.94
8451;BME280;4262;50.980;13.892;2023-12-07T07:55:33;88904.97;;;-142.97;77.96
8451;BME280;4262;50.980;13.892;2023-12-07T07:58:00;88936.53;;;-142.97;77.79
8451;BME280;4262;50.980;13.892;2023-12-07T08:00:26;89220.47;;;-142.97;76.97
8451;BME280;4262;50.980;13.892;2023-12-07T08:02:53;89234.28;;;-142.97;77.37
8451;BME280;4262;50.980;13.892;2023-12-07T08:05:20;89307.25;;;-142.97;77.19
8451;BME280;4262;50.980;13.892;2023-12-07T08:07:47;89179.06;;;-142.97;76.90
8451;BME280;4262;50.980;13.892;2023-12-07T08:10:15;89252.03;;;-142.97;76.65
8451;BME280;4262;50.980;13.892;2023-12-07T08:12:42;89317.13;;;-142.97;76.25
8451;BME280;4262;50.980;13.892;2023-12-07T08:15:09;89358.53;;;-142.97;76.71
8451;BME280;4262;50.980;13.892;2023-12-07T08:17:37;89309.22;;;-142.97;76.56
8451;BME280;4262;50.980;13.892;2023-12-07T08:20:06;89334.88;;;-142.97;76.82
8451;BME280;4262;50.980;13.892;2023-12-07T08:22:34;89200.75;;;-142.97;76.96
8451;BME280;4262;50.980;13.892;2023-12-07T08:25:02;89163.28;;;-142.97;77.19
8451;BME280;4262;50.980;13.892;2023-12-07T08:27:32;89277.69;;;-142.97;76.80
8451;BME280;4262;50.980;13.892;2023-12-07T08:29:59;89287.53;;;-142.97;76.84
8451;BME280;4262;50.980;13.892;2023-12-07T08:32:26;89198.78;;;-142.97;77.45
8451;BME280;4262;50.980;13.892;2023-12-07T08:34:53;89074.56;;;-142.97;77.53
8451;BME280;4262;50.980;13.892;2023-12-07T08:37:20;89094.28;;;-142.97;77.69
8451;BME280;4262;50.980;13.892;2023-12-07T08:39:47;88743.31;;;-142.97;77.85
8451;BME280;4262;50.980;13.892;2023-12-07T08:42:14;87923.19;;;-142.97;78.54
8451;BME280;4262;50.980;13.892;2023-12-07T08:44:42;88532.34;;;-142.97;77.86
8451;BME280;4262;50.980;13.892;2023-12-07T08:47:09;88970.06;;;-142.97;77.82
8451;BME280;4262;50.980;13.892;2023-12-07T08:49:36;89185.00;;;-142.97;77.48
8451;BME280;4262;50.980;13.892;2023-12-07T08:52:03;89110.06;;;-142.97;77.44
8451;BME280;4262;50.980;13.892;2023-12-07T08:54:30;89019.34;;;-142.97;77.42
8451;BME280;4262;50.980;13.892;2023-12-07T08:56:56;88904.97;;;-142.97;77.83
8451;BME280;4262;50.980;13.892;2023-12-07T08:59:23;88711.75;;;-142.97;78.02
8451;BME280;4262;50.980;13.892;2023-12-07T09:01:52;88861.59;;;-142.97;77.65
8451;BME280;4262;50.980;13.892;2023-12-07T09:04:18;88414.03;;;-142.97;78.49
8451;BME280;4262;50.980;13.892;2023-12-07T09:06:45;88372.66;;;-142.97;78.03
8451;BME280;4262;50.980;13.892;2023-12-07T09:09:12;89001.59;;;-142.97;77.61
8451;BME280;4262;50.980;13.892;2023-12-07T09:11:39;88471.22;;;-142.97;77.91
8451;BME280;4262;50.980;13.892;2023-12-07T09:14:06;88419.97;;;-142.97;78.44
8451;BME280;4262;50.980;13.892;2023-12-07T09:16:32;87014.56;;;-142.97;79.00
8451;BME280;4262;50.980;13.892;2023-12-07T09:19:01;87142.66;;;-142.97;78.86
8451;BME280;4262;50.980;13.892;2023-12-07T09:21:28;86433.25;;;-142.97;79.13
8451;BME280;4262;50.980;13.892;2023-12-07T09:23:55;86933.75;;;-142.97;78.69
8451;BME280;4262;50.980;13.892;2023-12-07T09:26:22;88461.38;;;-142.97;77.96
8451;BME280;4262;50.980;13.892;2023-12-07T09:28:49;88765.00;;;-142.97;77.63
8451;BME280;4262;50.980;13.892;2023-12-07T09:31:15;89084.41;;;-142.97;77.43
8451;BME280;4262;50.980;13.892;2023-12-07T09:33:43;88820.19;;;-142.97;77.19
8451;BME280;4262;50.980;13.892;2023-12-07T09:36:16;88999.63;;;-142.97;77.56
8451;BME280;4262;50.980;13.892;2023-12-07T09:38:47;88960.19;;;-142.97;77.64
8451;BME280;4262;50.980;13.892;2023-12-07T09:41:14;89088.38;;;-142.97;77.42
8451;BME280;4262;50.980;13.892;2023-12-07T09:43:41;88745.28;;;-142.97;77.89
8451;BME280;4262;50.980;13.892;2023-12-07T09:46:08;88944.41;;;-142.97;77.53
8451;BME280;4262;50.980;13.892;2023-12-07T09:48:35;88985.84;;;-142.97;77.92
8451;BME280;4262;50.980;13.892;2023-12-07T09:51:04;88427.84;;;-142.97;78.27
8451;BME280;4262;50.980;13.892;2023-12-07T09:53:34;87893.59;;;-142.97;78.21
8451;BME280;4262;50.980;13.892;2023-12-07T09:56:01;87966.53;;;-142.97;78.20
8451;BME280;4262;50.980;13.892;2023-12-07T09:58:28;86951.50;;;-142.97;78.62
8451;BME280;4262;50.980;13.892;2023-12-07T10:00:54;87722.13;;;-142.97;78.37
8451;BME280;4262;50.980;13.892;2023-12-07T10:03:23;87170.25;;;-142.97;78.86
8451;BME280;4262;50.980;13.892;2023-12-07T10:05:54;87410.69;;;-142.97;78.67
8451;BME280;4262;50.980;13.892;2023-12-07T10:08:25;88305.63;;;-142.97;78.24
8451;BME280;4262;50.980;13.892;2023-12-07T10:11:03;89035.13;;;-142.97;77.67
8451;BME280;4262;50.980;13.892;2023-12-07T10:13:30;88725.56;;;-142.97;77.77
8451;BME280;4262;50.980;13.892;2023-12-07T10:16:11;87899.53;;;-142.97;78.28
8451;BME280;4262;50.980;13.892;2023-12-07T10:18:40;87538.81;;;-142.97;78.78
8451;BME280;4262;50.980;13.892;2023-12-07T10:21:07;88607.25;;;-142.97;78.18
8451;BME280;4262;50.980;13.892;2023-12-07T10:23:36;87572.31;;;-142.97;78.97
8451;BME280;4262;50.980;13.892;2023-12-07T10:26:05;85899.31;;;-142.97;79.20
8451;BME280;4262;50.980;13.892;2023-12-07T10:28:34;87702.41;;;-142.97;78.47
8451;BME280;4262;50.980;13.892;2023-12-07T10:31:01;88557.97;;;-142.97;77.91
8451;BME280;4262;50.980;13.892;2023-12-07T10:33:28;87525.00;;;-142.97;78.68
8451;BME280;4262;50.980;13.892;2023-12-07T10:35:54;84512.66;;;-142.97;79.84
8451;BME280;4262;50.980;13.892;2023-12-07T10:38:21;84238.94;;;-142.97;79.70
8451;BME280;4262;50.980;13.892;2023-12-07T10:40:50;83975.09;;;-142.97;79.36
8451;BME280;4262;50.980;13.892;2023-12-07T10:43:21;83006.50;;;-142.97;79.50
8451;BME280;4262;50.980;13.892;2023-12-07T10:45:48;84410.25;;;-142.97;79.26
8451;BME280;4262;50.980;13.892;2023-12-07T10:48:16;85201.97;;;-142.97;79.12
8451;BME280;4262;50.980;13.892;2023-12-07T10:50:46;86833.25;;;-142.97;78.42
8451;BME280;4262;50.980;13.892;2023-12-07T10:53:19;86429.31;;;-142.97;78.99
8451;BME280;4262;50.980;13.892;2023-12-07T10:55:53;88108.47;;;-142.97;78.25
8451;BME280;4262;50.980;13.892;2023-12-07T10:58:23;88321.38;;;-142.97;77.86
8451;BME280;4262;50.980;13.892;2023-12-07T11:00:52;87936.97;;;-142.97;78.18
8451;BME280;4262;50.980;13.892;2023-12-07T11:03:20;87974.44;;;-142.97;78.16
8451;BME280;4262;50.980;13.892;2023-12-07T11:05:47;87493.47;;;-142.97;78.32
8451;BME280;4262;50.980;13.892;2023-12-07T11:08:18;88806.41;;;-142.97;77.37
8451;BME280;4262;50.980;13.892;2023-12-07T11:10:50;88948.38;;;-142.97;77.16
8451;BME280;4262;50.980;13.892;2023-12-07T11:13:26;89009.50;;;-142.97;77.21
8451;BME280;4262;50.980;13.892;2023-12-07T11:15:53;89112.03;;;-142.97;77.15
8451;BME280;4262;50.980;13.892;2023-12-07T11:18:20;89261.91;;;-142.97;76.72
8451;BME280;4262;50.980;13.892;2023-12-07T11:20:47;88672.31;;;-142.97;77.94
8451;BME280;4262;50.980;13.892;2023-12-07T11:23:16;88023.72;;;-142.97;78.54
8451;BME280;4262;50.980;13.892;2023-12-07T11:25:43;85416.69;;;-142.97;79.45
8451;BME280;4262;50.980;13.892;2023-12-07T11:28:11;85215.78;;;-142.97;79.72
8451;BME280;4262;50.980;13.892;2023-12-07T11:30:42;78377.91;;;-142.97;80.59
8451;BME280;4262;50.980;13.892;2023-12-07T11:33:09;70765.06;;;-142.97;81.08
8451;BME280;4262;50.980;13.892;2023-12-07T11:36:05;72833.03;;;-142.97;80.88
8451;BME280;4262;50.980;13.892;2023-12-07T11:38:33;73415.97;;;-142.97;81.11
8451;BME280;4262;50.980;13.892;2023-12-07T11:41:00;74436.84;;;-142.97;80.45
8451;BME280;4262;50.980;13.892;2023-12-07T11:43:40;80122.00;;;-142.97;80.22
8451;BME280;4262;50.980;13.892;2023-12-07T11:46:12;79756.19;;;-142.97;80.35
8451;BME280;4262;50.980;13.892;2023-12-07T11:48:46;73983.31;;;-142.97;80.69
8451;BME280;4262;50.980;13.892;2023-12-07T11:51:13;72905.66;;;-142.97;80.69
8451;BME280;4262;50.980;13.892;2023-12-07T11:53:40;76175.00;;;-142.97;80.57
8451;BME280;4262;50.980;13.892;2023-12-07T11:56:08;80655.03;;;-142.97;79.96
8451;BME280;4262;50.980;13.892;2023-12-07T11:58:37;83579.34;;;-142.97;79.87
8451;BME280;4262;50.980;13.892;2023-12-07T12:01:04;84128.69;;;-142.97;79.53
8451;BME280;4262;50.980;13.892;2023-12-07T12:03:33;83910.13;;;-142.97;79.43
8451;BME280;4262;50.980;13.892;2023-12-07T12:06:03;79726.72;;;-142.97;80.17
8451;BME280;4262;50.980;13.892;2023-12-07T12:08:31;78997.19;;;-142.97;80.13
8451;BME280;4262;50.980;13.892;2023-12-07T12:10:58;76609.19;;;-142.97;80.57
8451;BME280;4262;50.980;13.892;2023-12-07T12:13:28;80542.91;;;-142.97;80.06
8451;BME280;4262;50.980;13.892;2023-12-07T12:15:55;83874.69;;;-142.97;79.47
8451;BME280;4262;50.980;13.892;2023-12-07T12:18:22;86007.69;;;-142.97;79.09
8451;BME280;4262;50.980;13.892;2023-12-07T12:20:52;86541.63;;;-142.97;79.15
8451;BME280;4262;50.980;13.892;2023-12-07T12:23:20;86015.56;;;-142.97;79.20
8451;BME280;4262;50.980;13.892;2023-12-07T12:25:47;84110.97;;;-142.97;79.29
8451;BME280;4262;50.980;13.892;2023-12-07T12:28:16;80407.19;;;-142.97;80.21
8451;BME280;4262;50.980;13.892;2023-12-07T12:30:43;81603.31;;;-142.97;80.09
8451;BME280;4262;50.980;13.892;2023-12-07T12:33:12;77888.47;;;-142.97;80.57
8451;BME280;4262;50.980;13.892;2023-12-07T12:35:39;79756.19;;;-142.97;80.33
8451;BME280;4262;50.980;13.892;2023-12-07T12:38:10;79541.84;;;-142.97;80.24
8451;BME280;4262;50.980;13.892;2023-12-07T12:40:37;80725.84;;;-142.97;80.31
8451;BME280;4262;50.980;13.892;2023-12-07T12:43:04;80159.38;;;-142.97;79.79
8451;BME280;4262;50.980;13.892;2023-12-07T12:45:34;82079.50;;;-142.97;80.05
8451;BME280;4262;50.980;13.892;2023-12-07T12:48:01;83211.22;;;-142.97;79.38
8451;BME280;4262;50.980;13.892;2023-12-07T12:50:35;82319.59;;;-142.97;79.86
8451;BME280;4262;50.980;13.892;2023-12-07T12:53:04;82225.13;;;-142.97;80.02